sensor_id;sensor_type;location;lat;lon;timestamp;pressure;altitude;pressure_sealevel;temperature;humidity
75425;BME280;64007;50.632;13.700;2023-04-09T00:02:13;98826.97;;;1.60;100.00
75425;BME280;64007;50.632;13.700;2023-04-09T00:04:39;98817.41;;;1.59;100.00
75425;BME280;64007;50.632;13.700;2023-04-09T00:07:04;98829.09;;;1.49;100.00
75425;BME280;64007;50.632;13.700;2023-04-09T00:09:30;98830.09;;;1.45;100.00
75425;BME280;64007;50.632;13.700;2023-04-09T00:11:56;98832.75;;;1.43;100.00
75425;BME280;64007;50.632;13.700;2023-04-09T00:14:23;98834.53;;;1.43;100.00
75425;BME280;64007;50.632;13.700;2023-04-09T00:16:48;98832.13;;;1.35;100.00
75425;BME280;64007;50.632;13.700;2023-04-09T00:19:14;98833.00;;;1.36;100.00
75425;BME280;64007;50.632;13.700;2023-04-09T00:21:41;98834.63;;;1.40;100.00
75425;BME280;64007;50.632;13.700;2023-04-09T00:24:07;98825.94;;;1.38;100.00
75425;BME280;64007;50.632;13.700;2023-04-09T00:26:32;98836.56;;;1.33;100.00
75425;BME280;64007;50.632;13.700;2023-04-09T00:28:58;98830.56;;;1.30;100.00
75425;BME280;64007;50.632;13.700;2023-04-09T00:31:24;98837.53;;;1.31;100.00
75425;BME280;64007;50.632;13.700;2023-04-09T00:33:50;98836.72;;;1.29;100.00
75425;BME280;64007;50.632;13.700;2023-04-09T00:36:15;98835.91;;;1.27;100.00
75425;BME280;64007;50.632;13.700;2023-04-09T00:38:41;98831.66;;;1.22;100.00
75425;BME280;64007;50.632;13.700;2023-04-09T00:41:07;98835.91;;;1.27;100.00
75425;BME280;64007;50.632;13.700;2023-04-09T00:43:33;98828.03;;;1.27;100.00
75425;BME280;64007;50.632;13.700;2023-04-09T00:45:59;98831.19;;;1.38;100.00
75425;BME280;64007;50.632;13.700;2023-04-09T00:48:25;98826.94;;;1.34;100.00
75425;BME280;64007;50.632;13.700;2023-04-09T00:50:51;98826.94;;;1.34;100.00
75425;BME280;64007;50.632;13.700;2023-04-09T00:53:17;98825.22;;;1.33;100.00
75425;BME280;64007;50.632;13.700;2023-04-09T00:55:44;98826.84;;;1.37;100.00
75425;BME280;64007;50.632;13.700;2023-04-09T00:58:11;98827.63;;;1.40;100.00
75425;BME280;64007;50.632;13.700;2023-04-09T01:00:36;98830.91;;;1.47;100.00
75425;BME280;64007;50.632;13.700;2023-04-09T01:03:04;98822.84;;;1.53;100.00
75425;BME280;64007;50.632;13.700;2023-04-09T01:05:36;98826.97;;;1.60;100.00
75425;BME280;64007;50.632;13.700;2023-04-09T01:08:24;98833.72;;;1.69;100.00
75425;BME280;64007;50.632;13.700;2023-04-09T01:16:18;98818.22;;;1.87;100.00
75425;BME280;64007;50.632;13.700;2023-04-09T01:18:56;98816.31;;;1.93;100.00
75425;BME280;64007;50.632;13.700;2023-04-09T01:21:25;98817.75;;;2.03;100.00
75425;BME280;64007;50.632;13.700;2023-04-09T01:23:57;98814.00;;;2.10;100.00
75425;BME280;64007;50.632;13.700;2023-04-09T01:29:19;98804.78;;;2.23;100.00
75425;BME280;64007;50.632;13.700;2023-04-09T01:31:46;98811.63;;;2.27;100.00
75425;BME280;64007;50.632;13.700;2023-04-09T01:34:13;98815.84;;;2.31;100.00
75425;BME280;64007;50.632;13.700;2023-04-09T01:36:40;98820.09;;;2.35;100.00
75425;BME280;64007;50.632;13.700;2023-04-09T01:39:08;98819.91;;;2.41;100.00
75425;BME280;64007;50.632;13.700;2023-04-09T01:41:34;98822.47;;;2.43;100.00
75425;BME280;64007;50.632;13.700;2023-04-09T01:44:02;98823.28;;;2.45;100.00
75425;BME280;64007;50.632;13.700;2023-04-09T01:46:29;98816.25;;;2.45;100.00
75425;BME280;64007;50.632;13.700;2023-04-09T01:48:56;98819.03;;;2.41;100.00
75425;BME280;64007;50.632;13.700;2023-04-09T01:51:23;98818.06;;;2.43;100.00
75425;BME280;64007;50.632;13.700;2023-04-09T01:53:48;98814.22;;;2.54;100.00
75425;BME280;64007;50.632;13.700;2023-04-09T01:56:14;98811.25;;;2.63;100.00
75425;BME280;64007;50.632;13.700;2023-04-09T01:58:40;98815.81;;;2.58;100.00
75425;BME280;64007;50.632;13.700;2023-04-09T02:01:10;98806.09;;;2.60;100.00
75425;BME280;64007;50.632;13.700;2023-04-09T02:06:41;98798.56;;;2.50;100.00
75425;BME280;64007;50.632;13.700;2023-04-09T02:09:10;98791.59;;;2.49;100.00
75425;BME280;64007;50.632;13.700;2023-04-09T02:11:39;98793.22;;;2.54;100.00
75425;BME280;64007;50.632;13.700;2023-04-09T02:14:06;98796.53;;;2.59;100.00
75425;BME280;64007;50.632;13.700;2023-04-09T02:16:35;98801.66;;;2.62;100.00
75425;BME280;64007;50.632;13.700;2023-04-09T02:19:02;98797.25;;;2.62;100.00
75425;BME280;64007;50.632;13.700;2023-04-09T02:21:28;98811.94;;;2.68;100.00
75425;BME280;64007;50.632;13.700;2023-04-09T02:23:54;98817.13;;;2.69;100.00
75425;BME280;64007;50.632;13.700;2023-04-09T02:26:21;98825.06;;;2.68;100.00
75425;BME280;64007;50.632;13.700;2023-04-09T02:28:47;98828.53;;;2.68;100.00
75425;BME280;64007;50.632;13.700;2023-04-09T02:31:13;98824.13;;;2.94;100.00
75425;BME280;64007;50.632;13.700;2023-04-09T02:33:38;98818.25;;;2.87;100.00
75425;BME280;64007;50.632;13.700;2023-04-09T02:36:04;98827.56;;;2.71;100.00
75425;BME280;64007;50.632;13.700;2023-04-09T02:38:31;98810.22;;;2.67;100.00
75425;BME280;64007;50.632;13.700;2023-04-09T02:40:56;98816.38;;;2.66;100.00
75425;BME280;64007;50.632;13.700;2023-04-09T02:43:22;98813.75;;;2.66;100.00
75425;BME280;64007;50.632;13.700;2023-04-09T02:45:48;98804.84;;;2.70;100.00
75425;BME280;64007;50.632;13.700;2023-04-09T02:48:14;98810.41;;;2.86;100.00
75425;BME280;64007;50.632;13.700;2023-04-09T02:50:40;98799.97;;;2.84;100.00
75425;BME280;64007;50.632;13.700;2023-04-09T02:53:05;98799.91;;;2.86;100.00
75425;BME280;64007;50.632;13.700;2023-04-09T02:55:31;98804.56;;;2.77;100.00
75425;BME280;64007;50.632;13.700;2023-04-09T02:57:57;98799.38;;;2.76;100.00
75425;BME280;64007;50.632;13.700;2023-04-09T03:00:22;98808.06;;;2.78;100.00
75425;BME280;64007;50.632;13.700;2023-04-09T03:02:48;98810.63;;;2.79;100.00
75425;BME280;64007;50.632;13.700;2023-04-09T03:05:14;98804.44;;;2.82;100.00
75425;BME280;64007;50.632;13.700;2023-04-09T03:07:40;98806.94;;;2.85;100.00
75425;BME280;64007;50.632;13.700;2023-04-09T03:10:06;98809.44;;;2.88;100.00
75425;BME280;64007;50.632;13.700;2023-04-09T03:12:32;98800.66;;;2.89;100.00
75425;BME280;64007;50.632;13.700;2023-04-09T03:14:57;98799.38;;;2.99;100.00
75425;BME280;64007;50.632;13.700;2023-04-09T03:17:23;98803.00;;;2.97;100.00
75425;BME280;64007;50.632;13.700;2023-04-09T03:19:52;98809.09;;;2.97;100.00
75425;BME280;64007;50.632;13.700;2023-04-09T03:22:18;98815.94;;;3.01;100.00
75425;BME280;64007;50.632;13.700;2023-04-09T03:24:43;98813.13;;;3.06;100.00
75425;BME280;64007;50.632;13.700;2023-04-09T03:27:09;98815.81;;;3.04;100.00
75425;BME280;64007;50.632;13.700;2023-04-09T03:29:35;98812.28;;;3.05;100.00
75425;BME280;64007;50.632;13.700;2023-04-09T03:32:01;98815.72;;;3.07;100.00
75425;BME280;64007;50.632;13.700;2023-04-09T03:34:26;98814.91;;;3.05;100.00
75425;BME280;64007;50.632;13.700;2023-04-09T03:36:52;98808.88;;;3.03;100.00
75425;BME280;64007;50.632;13.700;2023-04-09T03:39:17;98807.03;;;3.05;100.00
75425;BME280;64007;50.632;13.700;2023-04-09T03:41:43;98803.50;;;3.06;100.00
75425;BME280;64007;50.632;13.700;2023-04-09T03:44:09;98806.97;;;3.07;100.00
75425;BME280;64007;50.632;13.700;2023-04-09T03:46:35;98807.72;;;3.10;100.00
75425;BME280;64007;50.632;13.700;2023-04-09T03:49:00;98809.31;;;3.14;100.00
75425;BME280;64007;50.632;13.700;2023-04-09T03:51:26;98808.31;;;3.17;100.00
75425;BME280;64007;50.632;13.700;2023-04-09T03:53:52;98801.31;;;3.18;100.00
75425;BME280;64007;50.632;13.700;2023-04-09T03:56:18;98799.47;;;3.20;100.00
75425;BME280;64007;50.632;13.700;2023-04-09T03:58:43;98790.59;;;3.24;100.00
75425;BME280;64007;50.632;13.700;2023-04-09T04:01:09;98799.25;;;3.26;100.00
75425;BME280;64007;50.632;13.700;2023-04-09T04:03:35;98803.47;;;3.30;100.00
75425;BME280;64007;50.632;13.700;2023-04-09T04:06:02;98799.25;;;3.26;100.00
75425;BME280;64007;50.632;13.700;2023-04-09T04:08:28;98798.41;;;3.25;100.00
75425;BME280;64007;50.632;13.700;2023-04-09T04:10:54;98796.75;;;3.23;100.00
75425;BME280;64007;50.632;13.700;2023-04-09T04:13:20;98801.22;;;3.21;100.00
75425;BME280;64007;50.632;13.700;2023-04-09T04:15:46;98801.94;;;3.24;100.00
75425;BME280;64007;50.632;13.700;2023-04-09T04:18:12;98801.94;;;3.24;100.00
75425;BME280;64007;50.632;13.700;2023-04-09T04:20:39;98815.03;;;3.26;100.00
75425;BME280;64007;50.632;13.700;2023-04-09T04:23:04;98807.09;;;3.27;100.00
75425;BME280;64007;50.632;13.700;2023-04-09T04:25:31;98811.38;;;3.30;100.00
75425;BME280;64007;50.632;13.700;2023-04-09T04:27:56;98805.97;;;3.33;100.00
75425;BME280;64007;50.632;13.700;2023-04-09T04:30:22;98805.38;;;3.26;100.00
75425;BME280;64007;50.632;13.700;2023-04-09T04:32:48;98799.25;;;3.26;100.00
75425;BME280;64007;50.632;13.700;2023-04-09T04:35:14;98803.47;;;3.30;100.00
75425;BME280;64007;50.632;13.700;2023-04-09T04:37:40;98804.22;;;3.33;100.00
75425;BME280;64007;50.632;13.700;2023-04-09T04:40:07;98810.13;;;3.38;100.00
75425;BME280;64007;50.632;13.700;2023-04-09T04:42:33;98812.84;;;3.37;100.00
75425;BME280;64007;50.632;13.700;2023-04-09T04:44:59;98823.34;;;3.37;100.00
75425;BME280;64007;50.632;13.700;2023-04-09T04:47:24;98836.50;;;3.37;100.00
75425;BME280;64007;50.632;13.700;2023-04-09T04:49:50;98829.47;;;3.37;100.00
75425;BME280;64007;50.632;13.700;2023-04-09T04:52:16;98845.22;;;3.37;100.00
75425;BME280;64007;50.632;13.700;2023-04-09T04:54:42;98852.19;;;3.38;100.00
75425;BME280;64007;50.632;13.700;2023-04-09T04:57:07;98852.13;;;3.40;100.00
75425;BME280;64007;50.632;13.700;2023-04-09T04:59:37;98850.31;;;3.42;100.00
75425;BME280;64007;50.632;13.700;2023-04-09T05:02:06;98849.38;;;3.43;100.00
75425;BME280;64007;50.632;13.700;2023-04-09T05:04:32;98846.81;;;3.41;100.00
75425;BME280;64007;50.632;13.700;2023-04-09T05:06:58;98851.09;;;3.44;100.00
75425;BME280;64007;50.632;13.700;2023-04-09T05:09:24;98852.94;;;3.42;100.00
75425;BME280;64007;50.632;13.700;2023-04-09T05:11:49;98853.50;;;3.50;100.00
75425;BME280;64007;50.632;13.700;2023-04-09T05:14:15;98852.56;;;3.51;100.00
75425;BME280;64007;50.632;13.700;2023-04-09T05:16:41;98857.72;;;3.54;100.00
75425;BME280;64007;50.632;13.700;2023-04-09T05:19:07;98843.53;;;3.58;100.00
75425;BME280;64007;50.632;13.700;2023-04-09T05:21:32;98842.44;;;3.64;100.00
75425;BME280;64007;50.632;13.700;2023-04-09T05:23:58;98840.50;;;3.69;100.00
75425;BME280;64007;50.632;13.700;2023-04-09T05:26:24;98842.81;;;3.76;100.00
75425;BME280;64007;50.632;13.700;2023-04-09T05:28:50;98842.56;;;3.83;100.00
75425;BME280;64007;50.632;13.700;2023-04-09T05:31:16;98841.38;;;3.90;100.00
75425;BME280;64007;50.632;13.700;2023-04-09T05:33:42;98842.72;;;4.00;100.00
75425;BME280;64007;50.632;13.700;2023-04-09T05:36:07;98846.56;;;4.13;100.00
75425;BME280;64007;50.632;13.700;2023-04-09T05:38:33;98846.31;;;4.19;100.00
75425;BME280;64007;50.632;13.700;2023-04-09T05:40:59;98848.63;;;4.27;100.00
75425;BME280;64007;50.632;13.700;2023-04-09T05:43:25;98858.41;;;4.23;100.00
75425;BME280;64007;50.632;13.700;2023-04-09T05:45:51;98862.97;;;4.20;100.00
75425;BME280;64007;50.632;13.700;2023-04-09T05:48:17;98869.34;;;4.14;100.00
75425;BME280;64007;50.632;13.700;2023-04-09T05:50:49;98877.09;;;4.17;100.00
75425;BME280;64007;50.632;13.700;2023-04-09T05:53:17;98878.69;;;4.21;100.00
75425;BME280;64007;50.632;13.700;2023-04-09T05:55:44;98875.59;;;4.32;100.00
75425;BME280;64007;50.632;13.700;2023-04-09T05:58:10;98880.75;;;4.35;100.00
75425;BME280;64007;50.632;13.700;2023-04-09T06:00:36;98874.25;;;4.44;100.00
75425;BME280;64007;50.632;13.700;2023-04-09T06:03:02;98871.41;;;4.48;100.00
75425;BME280;64007;50.632;13.700;2023-04-09T06:05:28;98867.00;;;4.49;100.00
75425;BME280;64007;50.632;13.700;2023-04-09T06:07:54;98871.03;;;4.57;100.00
75425;BME280;64007;50.632;13.700;2023-04-09T06:10:19;98865.28;;;4.68;100.00
75425;BME280;64007;50.632;13.700;2023-04-09T06:12:46;98862.16;;;4.79;100.00
75425;BME280;64007;50.632;13.700;2023-04-09T06:15:11;98857.38;;;4.88;100.00
75425;BME280;64007;50.632;13.700;2023-04-09T06:17:37;98862.09;;;5.19;100.00
75425;BME280;64007;50.632;13.700;2023-04-09T06:20:03;98851.00;;;5.31;100.00
75425;BME280;64007;50.632;13.700;2023-04-09T06:22:29;98861.00;;;5.44;100.00
75425;BME280;64007;50.632;13.700;2023-04-09T06:24:55;98861.00;;;5.44;100.00
75425;BME280;64007;50.632;13.700;2023-04-09T06:27:21;98854.84;;;5.43;100.00
75425;BME280;64007;50.632;13.700;2023-04-09T06:29:47;98849.31;;;5.30;100.00
75425;BME280;64007;50.632;13.700;2023-04-09T06:32:12;98853.72;;;5.30;100.00
75425;BME280;64007;50.632;13.700;2023-04-09T06:34:38;98859.00;;;5.30;100.00
75425;BME280;64007;50.632;13.700;2023-04-09T06:37:04;98847.38;;;5.34;100.00
75425;BME280;64007;50.632;13.700;2023-04-09T06:39:29;98850.44;;;5.62;100.00
75425;BME280;64007;50.632;13.700;2023-04-09T06:41:55;98846.38;;;6.10;100.00
75425;BME280;64007;50.632;13.700;2023-04-09T06:44:21;98847.56;;;6.22;100.00
75425;BME280;64007;50.632;13.700;2023-04-09T06:46:49;98842.66;;;6.14;100.00
75425;BME280;64007;50.632;13.700;2023-04-09T06:49:14;98842.97;;;6.08;100.00
75425;BME280;64007;50.632;13.700;2023-04-09T06:51:40;98850.88;;;6.08;100.00
75425;BME280;64007;50.632;13.700;2023-04-09T06:54:06;98856.03;;;6.28;100.00
75425;BME280;64007;50.632;13.700;2023-04-09T06:56:32;98862.69;;;6.36;100.00
75425;BME280;64007;50.632;13.700;2023-04-09T06:58:58;98863.88;;;6.30;100.00
75425;BME280;64007;50.632;13.700;2023-04-09T07:01:24;98866.00;;;6.41;100.00
75425;BME280;64007;50.632;13.700;2023-04-09T07:03:50;98869.09;;;6.49;100.00
75425;BME280;64007;50.632;13.700;2023-04-09T07:06:17;98874.97;;;6.37;100.00
75425;BME280;64007;50.632;13.700;2023-04-09T07:08:42;98872.03;;;6.25;100.00
75425;BME280;64007;50.632;13.700;2023-04-09T07:11:08;98879.31;;;6.38;100.00
75425;BME280;64007;50.632;13.700;2023-04-09T07:13:34;98877.59;;;6.19;100.00
75425;BME280;64007;50.632;13.700;2023-04-09T07:16:00;98890.75;;;6.21;100.00
75425;BME280;64007;50.632;13.700;2023-04-09T07:18:26;98888.88;;;6.23;100.00
75425;BME280;64007;50.632;13.700;2023-04-09T07:20:52;98887.00;;;6.25;100.00
75425;BME280;64007;50.632;13.700;2023-04-09T07:23:18;98892.84;;;6.32;100.00
75425;BME280;64007;50.632;13.700;2023-04-09T07:25:44;98890.28;;;6.30;100.00
75425;BME280;64007;50.632;13.700;2023-04-09T07:28:09;98891.53;;;6.40;100.00
75425;BME280;64007;50.632;13.700;2023-04-09T07:30:36;98880.19;;;6.38;100.00
75425;BME280;64007;50.632;13.700;2023-04-09T07:33:02;98887.88;;;6.25;100.00
75425;BME280;64007;50.632;13.700;2023-04-09T07:35:28;98881.88;;;6.22;100.00
75425;BME280;64007;50.632;13.700;2023-04-09T07:37:53;98886.03;;;6.45;100.00
75425;BME280;64007;50.632;13.700;2023-04-09T07:40:20;98888.75;;;6.60;100.00
75425;BME280;64007;50.632;13.700;2023-04-09T07:42:47;98887.91;;;6.60;100.00
75425;BME280;64007;50.632;13.700;2023-04-09T07:45:14;98881.84;;;6.58;100.00
75425;BME280;64007;50.632;13.700;2023-04-09T07:47:40;98873.50;;;6.66;100.00
75425;BME280;64007;50.632;13.700;2023-04-09T07:50:07;98877.25;;;6.62;100.00
75425;BME280;64007;50.632;13.700;2023-04-09T07:52:32;98878.25;;;6.59;100.00
75425;BME280;64007;50.632;13.700;2023-04-09T07:54:58;98874.97;;;6.71;100.00
75425;BME280;64007;50.632;13.700;2023-04-09T07:57:24;98871.06;;;6.96;99.75
75425;BME280;64007;50.632;13.700;2023-04-09T07:59:50;98876.81;;;7.04;100.00
75425;BME280;64007;50.632;13.700;2023-04-09T08:02:15;98872.91;;;7.11;97.53
75425;BME280;64007;50.632;13.700;2023-04-09T08:04:42;98879.09;;;7.27;100.00
75425;BME280;64007;50.632;13.700;2023-04-09T08:07:07;98876.38;;;7.44;100.00
75425;BME280;64007;50.632;13.700;2023-04-09T08:09:34;98878.09;;;7.45;98.14
75425;BME280;64007;50.632;13.700;2023-04-09T08:12:00;98882.03;;;7.54;88.71
75425;BME280;64007;50.632;13.700;2023-04-09T08:14:26;98881.16;;;7.53;88.01
75425;BME280;64007;50.632;13.700;2023-04-09T08:16:52;98890.03;;;7.52;88.65
75425;BME280;64007;50.632;13.700;2023-04-09T08:19:18;98896.53;;;7.47;87.61
75425;BME280;64007;50.632;13.700;2023-04-09T08:21:44;98899.59;;;7.39;92.21
75425;BME280;64007;50.632;13.700;2023-04-09T08:24:11;98898.41;;;7.45;89.25
75425;BME280;64007;50.632;13.700;2023-04-09T08:26:37;98910.94;;;7.41;88.87
75425;BME280;64007;50.632;13.700;2023-04-09T08:29:03;98913.44;;;7.44;91.76
75425;BME280;64007;50.632;13.700;2023-04-09T08:31:29;98904.81;;;7.57;91.70
75425;BME280;64007;50.632;13.700;2023-04-09T08:33:55;98905.72;;;7.73;90.70
75425;BME280;64007;50.632;13.700;2023-04-09T08:36:20;98911.44;;;7.81;89.33
75425;BME280;64007;50.632;13.700;2023-04-09T08:38:46;98919.44;;;7.79;91.46
75425;BME280;64007;50.632;13.700;2023-04-09T08:41:20;98914.84;;;7.83;91.00
75425;BME280;64007;50.632;13.700;2023-04-09T08:43:47;98910.91;;;7.90;92.36
75425;BME280;64007;50.632;13.700;2023-04-09T08:46:14;98906.66;;;8.03;87.71
75425;BME280;64007;50.632;13.700;2023-04-09T08:48:45;98905.09;;;8.15;86.73
75425;BME280;64007;50.632;13.700;2023-04-09T08:51:19;98909.78;;;8.26;86.43
75425;BME280;64007;50.632;13.700;2023-04-09T08:53:46;98912.59;;;8.38;85.86
75425;BME280;64007;50.632;13.700;2023-04-09T08:56:15;98910.13;;;8.51;88.39
75425;BME280;64007;50.632;13.700;2023-04-09T08:58:42;98907.03;;;8.73;86.84
75425;BME280;64007;50.632;13.700;2023-04-09T09:06:23;98895.69;;;9.43;83.59
75425;BME280;64007;50.632;13.700;2023-04-09T09:11:39;98896.75;;;9.96;75.20
75425;BME280;64007;50.632;13.700;2023-04-09T09:14:07;98898.72;;;10.21;77.95
75425;BME280;64007;50.632;13.700;2023-04-09T09:16:35;98888.56;;;10.14;73.08
75425;BME280;64007;50.632;13.700;2023-04-09T09:19:04;98884.75;;;10.18;73.81
75425;BME280;64007;50.632;13.700;2023-04-09T09:21:30;98890.19;;;10.43;74.85
75425;BME280;64007;50.632;13.700;2023-04-09T09:23:57;98885.53;;;10.59;75.15
75425;BME280;64007;50.632;13.700;2023-04-09T09:26:24;98896.03;;;10.88;74.43
75425;BME280;64007;50.632;13.700;2023-04-09T09:28:52;98894.97;;;11.03;77.22
75425;BME280;64007;50.632;13.700;2023-04-09T09:31:19;98890.06;;;10.97;69.98
75425;BME280;64007;50.632;13.700;2023-04-09T09:33:46;98897.31;;;11.08;72.62
75425;BME280;64007;50.632;13.700;2023-04-09T09:36:13;98892.34;;;11.28;71.56
75425;BME280;64007;50.632;13.700;2023-04-09T09:38:57;98895.91;;;11.53;66.82
75425;BME280;64007;50.632;13.700;2023-04-09T09:41:23;98889.84;;;11.51;65.18
75425;BME280;64007;50.632;13.700;2023-04-09T09:43:49;98886.44;;;11.49;64.87
75425;BME280;64007;50.632;13.700;2023-04-09T09:46:15;98878.75;;;11.57;66.45
75425;BME280;64007;50.632;13.700;2023-04-09T09:48:43;98875.13;;;11.83;67.75
75425;BME280;64007;50.632;13.700;2023-04-09T09:51:12;98870.81;;;11.93;64.82
75425;BME280;64007;50.632;13.700;2023-04-09T09:53:42;98877.22;;;12.04;65.60
75425;BME280;64007;50.632;13.700;2023-04-09T09:56:20;98866.81;;;12.12;62.94
75425;BME280;64007;50.632;13.700;2023-04-09T10:01:32;98868.84;;;12.32;63.60
75425;BME280;64007;50.632;13.700;2023-04-09T10:03:59;98859.50;;;12.50;59.63
75425;BME280;64007;50.632;13.700;2023-04-09T10:06:25;98857.19;;;12.46;57.84
75425;BME280;64007;50.632;13.700;2023-04-09T10:08:56;98858.34;;;12.66;62.56
75425;BME280;64007;50.632;13.700;2023-04-09T10:11:22;98855.56;;;12.78;59.11
75425;BME280;64007;50.632;13.700;2023-04-09T10:14:07;98852.34;;;12.86;60.24
75425;BME280;64007;50.632;13.700;2023-04-09T10:16:32;98852.13;;;13.00;58.69
75425;BME280;64007;50.632;13.700;2023-04-09T10:18:59;98851.72;;;13.29;58.90
75425;BME280;64007;50.632;13.700;2023-04-09T10:21:50;98835.19;;;13.35;53.99
75425;BME280;64007;50.632;13.700;2023-04-09T10:24:19;98841.00;;;13.40;53.95
75425;BME280;64007;50.632;13.700;2023-04-09T10:26:45;98833.97;;;13.50;54.18
75425;BME280;64007;50.632;13.700;2023-04-09T10:29:13;98843.31;;;13.67;55.73
75425;BME280;64007;50.632;13.700;2023-04-09T10:34:15;98826.03;;;13.82;55.47
75425;BME280;64007;50.632;13.700;2023-04-09T10:36:43;98824.47;;;13.79;53.56
75425;BME280;64007;50.632;13.700;2023-04-09T10:39:12;98824.91;;;13.96;53.11
75425;BME280;64007;50.632;13.700;2023-04-09T10:41:38;98821.13;;;13.98;52.05
75425;BME280;64007;50.632;13.700;2023-04-09T10:44:05;98820.06;;;14.01;52.92
75425;BME280;64007;50.632;13.700;2023-04-09T10:46:35;98820.31;;;13.87;50.44
75425;BME280;64007;50.632;13.700;2023-04-09T10:51:50;98808.59;;;14.42;51.84
75425;BME280;64007;50.632;13.700;2023-04-09T10:57:23;98816.59;;;14.74;48.56
75425;BME280;64007;50.632;13.700;2023-04-09T10:59:52;98811.63;;;14.90;49.60
75425;BME280;64007;50.632;13.700;2023-04-09T11:07:51;98803.47;;;15.53;45.67
75425;BME280;64007;50.632;13.700;2023-04-09T11:10:18;98810.00;;;15.60;48.70
75425;BME280;64007;50.632;13.700;2023-04-09T11:12:48;98805.44;;;15.91;47.80
75425;BME280;64007;50.632;13.700;2023-04-09T11:15:18;98801.09;;;16.28;46.20
75425;BME280;64007;50.632;13.700;2023-04-09T11:17:47;98789.22;;;16.41;43.36
75425;BME280;64007;50.632;13.700;2023-04-09T11:20:16;98793.47;;;16.63;46.02
75425;BME280;64007;50.632;13.700;2023-04-09T11:22:43;98786.72;;;16.68;42.79
75425;BME280;64007;50.632;13.700;2023-04-09T11:25:09;98799.56;;;16.74;45.47
75425;BME280;64007;50.632;13.700;2023-04-09T11:27:43;98798.28;;;16.69;43.35
75425;BME280;64007;50.632;13.700;2023-04-09T11:30:09;98804.09;;;16.54;43.68
75425;BME280;64007;50.632;13.700;2023-04-09T11:32:35;98805.06;;;16.63;44.73
75425;BME280;64007;50.632;13.700;2023-04-09T11:35:01;98795.75;;;16.48;44.22
75425;BME280;64007;50.632;13.700;2023-04-09T11:37:27;98795.47;;;16.70;44.97
75425;BME280;64007;50.632;13.700;2023-04-09T11:39:53;98790.00;;;17.09;45.60
75425;BME280;64007;50.632;13.700;2023-04-09T11:42:20;98799.72;;;17.57;44.59
75425;BME280;64007;50.632;13.700;2023-04-09T11:44:52;98786.41;;;17.65;42.52
75425;BME280;64007;50.632;13.700;2023-04-09T11:47:18;98797.13;;;17.37;43.34
75425;BME280;64007;50.632;13.700;2023-04-09T11:49:45;98801.13;;;17.33;43.57
75425;BME280;64007;50.632;13.700;2023-04-09T11:52:12;98798.63;;;17.22;42.73
75425;BME280;64007;50.632;13.700;2023-04-09T11:54:41;98814.34;;;17.07;43.77
75425;BME280;64007;50.632;13.700;2023-04-09T11:57:07;98807.63;;;16.74;42.85
75425;BME280;64007;50.632;13.700;2023-04-09T11:59:33;98803.09;;;16.55;42.23
75425;BME280;64007;50.632;13.700;2023-04-09T12:01:58;98798.84;;;16.91;42.50
75425;BME280;64007;50.632;13.700;2023-04-09T12:04:24;98804.41;;;17.27;41.70
75425;BME280;64007;50.632;13.700;2023-04-09T12:06:50;98805.88;;;17.02;42.50
75425;BME280;64007;50.632;13.700;2023-04-09T12:09:21;98810.47;;;16.82;42.77
75425;BME280;64007;50.632;13.700;2023-04-09T12:11:47;98815.94;;;16.90;42.09
75425;BME280;64007;50.632;13.700;2023-04-09T12:14:14;98813.66;;;16.96;42.17
75425;BME280;64007;50.632;13.700;2023-04-09T12:16:41;98812.16;;;16.45;42.65
75425;BME280;64007;50.632;13.700;2023-04-09T12:19:11;98818.19;;;16.18;42.65
75425;BME280;64007;50.632;13.700;2023-04-09T12:21:50;98814.09;;;16.23;41.77
75425;BME280;64007;50.632;13.700;2023-04-09T12:24:18;98815.81;;;16.44;41.91
75425;BME280;64007;50.632;13.700;2023-04-09T12:26:45;98820.47;;;16.61;43.29
75425;BME280;64007;50.632;13.700;2023-04-09T12:29:13;98811.00;;;16.76;40.20
75425;BME280;64007;50.632;13.700;2023-04-09T12:31:39;98810.44;;;16.92;41.52
75425;BME280;64007;50.632;13.700;2023-04-09T12:34:05;98816.09;;;16.79;40.55
75425;BME280;64007;50.632;13.700;2023-04-09T12:36:31;98823.88;;;16.73;39.71
75425;BME280;64007;50.632;13.700;2023-04-09T12:38:56;98822.16;;;16.62;40.60
75425;BME280;64007;50.632;13.700;2023-04-09T12:41:22;98818.06;;;16.19;40.51
75425;BME280;64007;50.632;13.700;2023-04-09T12:43:48;98812.03;;;15.68;43.31
75425;BME280;64007;50.632;13.700;2023-04-09T12:46:14;98816.44;;;15.57;44.99
75425;BME280;64007;50.632;13.700;2023-04-09T12:48:40;98811.75;;;15.71;43.78
75425;BME280;64007;50.632;13.700;2023-04-09T12:51:05;98817.00;;;15.51;43.29
75425;BME280;64007;50.632;13.700;2023-04-09T12:53:32;98811.84;;;15.29;44.35
75425;BME280;64007;50.632;13.700;2023-04-09T12:55:57;98806.91;;;15.03;45.41
75425;BME280;64007;50.632;13.700;2023-04-09T12:58:23;98813.34;;;14.91;44.87
75425;BME280;64007;50.632;13.700;2023-04-09T13:00:49;98819.28;;;14.95;46.79
75425;BME280;64007;50.632;13.700;2023-04-09T13:03:14;98812.63;;;14.89;45.34
75425;BME280;64007;50.632;13.700;2023-04-09T13:05:41;98811.81;;;14.78;47.38
75425;BME280;64007;50.632;13.700;2023-04-09T13:08:07;98810.31;;;15.36;46.19
75425;BME280;64007;50.632;13.700;2023-04-09T13:10:32;98802.31;;;15.76;44.61
75425;BME280;64007;50.632;13.700;2023-04-09T13:12:58;98803.28;;;15.65;44.89
75425;BME280;64007;50.632;13.700;2023-04-09T13:15:24;98804.56;;;15.71;45.79
75425;BME280;64007;50.632;13.700;2023-04-09T13:17:50;98799.66;;;15.86;45.12
75425;BME280;64007;50.632;13.700;2023-04-09T13:20:15;98795.47;;;16.03;43.76
75425;BME280;64007;50.632;13.700;2023-04-09T13:22:41;98792.06;;;16.10;43.28
75425;BME280;64007;50.632;13.700;2023-04-09T13:25:07;98790.09;;;16.12;44.81